sensor_id;sensor_type;location;lat;lon;timestamp;pressure;altitude;pressure_sealevel;temperature;humidity
12594;BME280;6362;50.208;9.182;2023-01-31T00:00:01;100599.13;;;3.53;75.14
12594;BME280;6362;50.208;9.182;2023-01-31T00:02:29;100599.81;;;3.47;74.98
12594;BME280;6362;50.208;9.182;2023-01-31T00:04:55;100594.53;;;3.42;74.81
12594;BME280;6362;50.208;9.182;2023-01-31T00:07:20;100599.66;;;3.42;74.87
12594;BME280;6362;50.208;9.182;2023-01-31T00:09:46;100598.94;;;3.47;75.56
12594;BME280;6362;50.208;9.182;2023-01-31T00:12:11;100589.88;;;3.58;74.25
12594;BME280;6362;50.208;9.182;2023-01-31T00:14:36;100592.06;;;3.46;75.04
12594;BME280;6362;50.208;9.182;2023-01-31T00:17:02;100585.91;;;3.40;75.09
12594;BME280;6362;50.208;9.182;2023-01-31T00:19:27;100591.53;;;3.29;75.27
12594;BME280;6362;50.208;9.182;2023-01-31T00:21:53;100591.53;;;3.29;75.76
12594;BME280;6362;50.208;9.182;2023-01-31T00:24:18;100593.13;;;3.25;75.76
12594;BME280;6362;50.208;9.182;2023-01-31T00:26:43;100596.31;;;3.18;76.43
12594;BME280;6362;50.208;9.182;2023-01-31T00:29:09;100606.56;;;3.16;76.24
12594;BME280;6362;50.208;9.182;2023-01-31T00:31:35;100612.44;;;3.14;76.49
12594;BME280;6362;50.208;9.182;2023-01-31T00:34:00;100608.28;;;3.17;75.96
12594;BME280;6362;50.208;9.182;2023-01-31T00:36:28;100618.41;;;3.13;76.78
12594;BME280;6362;50.208;9.182;2023-01-31T00:38:55;100604.56;;;3.09;76.80
12594;BME280;6362;50.208;9.182;2023-01-31T00:41:23;100607.94;;;3.07;76.70
12594;BME280;6362;50.208;9.182;2023-01-31T00:43:49;100606.19;;;3.06;76.81
12594;BME280;6362;50.208;9.182;2023-01-31T00:46:15;100613.91;;;3.06;76.77
12594;BME280;6362;50.208;9.182;2023-01-31T00:48:40;100612.09;;;3.03;77.06
12594;BME280;6362;50.208;9.182;2023-01-31T00:51:06;100612.75;;;2.98;76.86
12594;BME280;6362;50.208;9.182;2023-01-31T00:53:31;100617.69;;;2.91;77.71
12594;BME280;6362;50.208;9.182;2023-01-31T00:56:12;100622.69;;;2.88;77.65
12594;BME280;6362;50.208;9.182;2023-01-31T00:58:37;100627.13;;;2.92;77.68
12594;BME280;6362;50.208;9.182;2023-01-31T01:01:08;100621.75;;;2.85;78.19
12594;BME280;6362;50.208;9.182;2023-01-31T01:03:34;100617.56;;;2.88;77.63
12594;BME280;6362;50.208;9.182;2023-01-31T01:05:59;100616.50;;;2.82;77.64
12594;BME280;6362;50.208;9.182;2023-01-31T01:08:25;100616.28;;;2.76;77.90
12594;BME280;6362;50.208;9.182;2023-01-31T01:10:50;100622.94;;;2.71;78.04
12594;BME280;6362;50.208;9.182;2023-01-31T01:13:15;100628.16;;;2.72;78.62
12594;BME280;6362;50.208;9.182;2023-01-31T01:15:41;100633.22;;;2.71;77.94
12594;BME280;6362;50.208;9.182;2023-01-31T01:18:06;100626.28;;;2.68;78.58
12594;BME280;6362;50.208;9.182;2023-01-31T01:20:34;100630.47;;;2.66;78.84
12594;BME280;6362;50.208;9.182;2023-01-31T01:22:59;100629.53;;;2.62;78.96
12594;BME280;6362;50.208;9.182;2023-01-31T01:25:25;100633.38;;;2.75;78.73
12594;BME280;6362;50.208;9.182;2023-01-31T01:27:50;100635.69;;;2.68;78.69
12594;BME280;6362;50.208;9.182;2023-01-31T01:30:16;100629.47;;;2.61;79.04
12594;BME280;6362;50.208;9.182;2023-01-31T01:32:41;100631.69;;;2.52;79.68
12594;BME280;6362;50.208;9.182;2023-01-31T01:35:07;100629.75;;;2.45;79.68
12594;BME280;6362;50.208;9.182;2023-01-31T01:37:34;100639.75;;;2.38;79.99
12594;BME280;6362;50.208;9.182;2023-01-31T01:39:59;100642.09;;;2.32;80.31
12594;BME280;6362;50.208;9.182;2023-01-31T01:42:26;100642.00;;;2.29;80.40
12594;BME280;6362;50.208;9.182;2023-01-31T01:47:35;100644.44;;;2.26;80.60
12594;BME280;6362;50.208;9.182;2023-01-31T01:52:33;100649.88;;;2.34;80.55
12594;BME280;6362;50.208;9.182;2023-01-31T01:55:26;100657.59;;;2.34;80.32
12594;BME280;6362;50.208;9.182;2023-01-31T01:58:02;100660.78;;;2.28;81.12
12594;BME280;6362;50.208;9.182;2023-01-31T02:00:29;100651.94;;;2.44;80.71
12594;BME280;6362;50.208;9.182;2023-01-31T02:02:58;100655.41;;;2.45;80.48
12594;BME280;6362;50.208;9.182;2023-01-31T02:05:38;100650.31;;;2.46;80.45
12594;BME280;6362;50.208;9.182;2023-01-31T02:08:04;100662.47;;;2.50;79.63
12594;BME280;6362;50.208;9.182;2023-01-31T02:10:41;100659.53;;;2.41;80.70
12594;BME280;6362;50.208;9.182;2023-01-31T02:13:08;100662.53;;;2.29;81.30
12594;BME280;6362;50.208;9.182;2023-01-31T02:15:35;100664.09;;;2.26;81.72
12594;BME280;6362;50.208;9.182;2023-01-31T02:18:01;100672.56;;;2.23;81.72
12594;BME280;6362;50.208;9.182;2023-01-31T02:26:22;100671.84;;;2.27;81.36
12594;BME280;6362;50.208;9.182;2023-01-31T02:37:21;100671.94;;;2.06;81.51
12594;BME280;6362;50.208;9.182;2023-01-31T02:40:51;100667.50;;;2.02;82.28
12594;BME280;6362;50.208;9.182;2023-01-31T02:42:57;100677.47;;;1.95;82.34
12594;BME280;6362;50.208;9.182;2023-01-31T02:45:36;100678.34;;;1.95;82.09
12594;BME280;6362;50.208;9.182;2023-01-31T02:48:24;100679.03;;;1.91;82.47
12594;BME280;6362;50.208;9.182;2023-01-31T02:50:59;100670.47;;;1.91;82.79
12594;BME280;6362;50.208;9.182;2023-01-31T02:53:39;100684.34;;;1.96;82.38
12594;BME280;6362;50.208;9.182;2023-01-31T02:56:12;100681.78;;;1.96;82.45
12594;BME280;6362;50.208;9.182;2023-01-31T02:58:55;100678.38;;;1.97;82.87
12594;BME280;6362;50.208;9.182;2023-01-31T03:01:26;100680.41;;;2.05;82.21
12594;BME280;6362;50.208;9.182;2023-01-31T03:03:58;100677.06;;;2.06;82.05
12594;BME280;6362;50.208;9.182;2023-01-31T03:11:28;100692.94;;;2.19;81.86
12594;BME280;6362;50.208;9.182;2023-01-31T03:17:00;100703.41;;;2.25;81.79
12594;BME280;6362;50.208;9.182;2023-01-31T03:22:25;100706.84;;;2.25;81.63
12594;BME280;6362;50.208;9.182;2023-01-31T03:24:52;100705.53;;;2.35;81.57
12594;BME280;6362;50.208;9.182;2023-01-31T03:27:19;100719.88;;;2.30;81.44
12594;BME280;6362;50.208;9.182;2023-01-31T03:29:45;100725.00;;;2.30;81.47
12594;BME280;6362;50.208;9.182;2023-01-31T03:32:39;100727.53;;;2.28;81.89
12594;BME280;6362;50.208;9.182;2023-01-31T03:35:08;100729.25;;;2.29;81.92
12594;BME280;6362;50.208;9.182;2023-01-31T03:37:42;100736.16;;;2.30;81.39
12594;BME280;6362;50.208;9.182;2023-01-31T03:40:25;100727.63;;;2.31;81.94
12594;BME280;6362;50.208;9.182;2023-01-31T03:45:46;100739.75;;;2.35;80.84
12594;BME280;6362;50.208;9.182;2023-01-31T03:48:14;100743.19;;;2.36;81.27
12594;BME280;6362;50.208;9.182;2023-01-31T03:50:56;100730.31;;;2.34;81.03
12594;BME280;6362;50.208;9.182;2023-01-31T03:53:46;100734.59;;;2.34;80.82
12594;BME280;6362;50.208;9.182;2023-01-31T03:56:26;100736.28;;;2.33;80.89
12594;BME280;6362;50.208;9.182;2023-01-31T03:59:02;100735.38;;;2.33;80.69
12594;BME280;6362;50.208;9.182;2023-01-31T04:01:33;100737.88;;;2.31;80.39
12594;BME280;6362;50.208;9.182;2023-01-31T04:04:07;100729.22;;;2.28;80.72
12594;BME280;6362;50.208;9.182;2023-01-31T04:06:33;100735.28;;;2.30;80.54
12594;BME280;6362;50.208;9.182;2023-01-31T04:08:59;100748.97;;;2.30;80.48
12594;BME280;6362;50.208;9.182;2023-01-31T04:11:25;100737.78;;;2.28;80.58
12594;BME280;6362;50.208;9.182;2023-01-31T04:13:51;100738.56;;;2.27;80.47
12594;BME280;6362;50.208;9.182;2023-01-31T04:16:17;100728.22;;;2.24;80.83
12594;BME280;6362;50.208;9.182;2023-01-31T04:18:43;100733.75;;;2.35;80.32
12594;BME280;6362;50.208;9.182;2023-01-31T04:21:09;100728.25;;;2.26;80.34
12594;BME280;6362;50.208;9.182;2023-01-31T04:23:35;100730.59;;;2.20;80.08
12594;BME280;6362;50.208;9.182;2023-01-31T04:26:01;100727.09;;;2.18;79.95
12594;BME280;6362;50.208;9.182;2023-01-31T04:28:26;100726.16;;;2.16;80.24
12594;BME280;6362;50.208;9.182;2023-01-31T04:30:53;100730.34;;;2.14;80.12
12594;BME280;6362;50.208;9.182;2023-01-31T04:33:19;100732.16;;;2.16;79.97
12594;BME280;6362;50.208;9.182;2023-01-31T04:35:45;100721.97;;;2.18;80.09
12594;BME280;6362;50.208;9.182;2023-01-31T04:38:10;100715.00;;;2.15;80.02
12594;BME280;6362;50.208;9.182;2023-01-31T04:40:35;100711.38;;;2.10;79.73
12594;BME280;6362;50.208;9.182;2023-01-31T04:43:01;100720.09;;;2.14;80.15
12594;BME280;6362;50.208;9.182;2023-01-31T04:45:26;100725.88;;;2.08;80.02
12594;BME280;6362;50.208;9.182;2023-01-31T04:47:52;100719.91;;;2.09;80.19
12594;BME280;6362;50.208;9.182;2023-01-31T04:50:17;100706.22;;;2.08;80.04
12594;BME280;6362;50.208;9.182;2023-01-31T04:52:43;100704.22;;;2.01;79.88
12594;BME280;6362;50.208;9.182;2023-01-31T04:55:08;100696.53;;;2.01;79.92
12594;BME280;6362;50.208;9.182;2023-01-31T04:57:34;100701.53;;;1.98;79.95
12594;BME280;6362;50.208;9.182;2023-01-31T04:59:59;100693.78;;;1.97;80.32
12594;BME280;6362;50.208;9.182;2023-01-31T05:02:25;100694.41;;;1.91;79.79
12594;BME280;6362;50.208;9.182;2023-01-31T05:04:50;100696.22;;;1.94;79.31
12594;BME280;6362;50.208;9.182;2023-01-31T05:07:16;100696.97;;;1.91;79.56
12594;BME280;6362;50.208;9.182;2023-01-31T05:09:41;100708.78;;;1.88;80.10
12594;BME280;6362;50.208;9.182;2023-01-31T05:12:08;100706.94;;;1.83;79.77
12594;BME280;6362;50.208;9.182;2023-01-31T05:14:33;100701.81;;;1.83;80.27
12594;BME280;6362;50.208;9.182;2023-01-31T05:16:59;100693.94;;;1.79;80.02
12594;BME280;6362;50.208;9.182;2023-01-31T05:19:24;100697.31;;;1.78;79.86
12594;BME280;6362;50.208;9.182;2023-01-31T05:21:50;100693.06;;;1.78;80.27
12594;BME280;6362;50.208;9.182;2023-01-31T05:24:26;100704.00;;;1.74;80.19
12594;BME280;6362;50.208;9.182;2023-01-31T05:26:52;100697.00;;;1.70;79.39
12594;BME280;6362;50.208;9.182;2023-01-31T05:29:25;100690.25;;;1.72;79.20
12594;BME280;6362;50.208;9.182;2023-01-31T05:31:53;100701.06;;;1.65;79.76
12594;BME280;6362;50.208;9.182;2023-01-31T05:34:19;100693.25;;;1.62;79.20
12594;BME280;6362;50.208;9.182;2023-01-31T05:36:45;100687.38;;;1.65;80.54
12594;BME280;6362;50.208;9.182;2023-01-31T05:39:11;100680.69;;;1.68;80.54
12594;BME280;6362;50.208;9.182;2023-01-31T05:41:36;100687.41;;;1.66;80.55
12594;BME280;6362;50.208;9.182;2023-01-31T05:44:02;100690.94;;;1.68;80.50
12594;BME280;6362;50.208;9.182;2023-01-31T05:46:27;100695.94;;;1.65;80.06
12594;BME280;6362;50.208;9.182;2023-01-31T05:48:53;100690.75;;;1.64;79.84
12594;BME280;6362;50.208;9.182;2023-01-31T05:51:18;100691.25;;;1.55;80.03
12594;BME280;6362;50.208;9.182;2023-01-31T05:53:44;100691.94;;;1.51;80.00
12594;BME280;6362;50.208;9.182;2023-01-31T05:56:09;100684.69;;;1.41;80.25
12594;BME280;6362;50.208;9.182;2023-01-31T05:58:35;100676.84;;;1.38;80.36
12594;BME280;6362;50.208;9.182;2023-01-31T06:01:00;100672.16;;;1.27;80.36
12594;BME280;6362;50.208;9.182;2023-01-31T06:03:26;100668.47;;;1.21;80.39
12594;BME280;6362;50.208;9.182;2023-01-31T06:05:52;100676.88;;;1.17;80.27
12594;BME280;6362;50.208;9.182;2023-01-31T06:08:17;100674.00;;;1.11;80.39
12594;BME280;6362;50.208;9.182;2023-01-31T06:10:43;100679.75;;;1.05;80.98
12594;BME280;6362;50.208;9.182;2023-01-31T06:13:08;100679.50;;;0.99;80.85
12594;BME280;6362;50.208;9.182;2023-01-31T06:15:34;100672.53;;;0.95;81.33
12594;BME280;6362;50.208;9.182;2023-01-31T06:18:01;100679.13;;;0.90;80.96
12594;BME280;6362;50.208;9.182;2023-01-31T06:20:28;100672.84;;;0.83;81.42
12594;BME280;6362;50.208;9.182;2023-01-31T06:22:53;100668.22;;;0.74;81.37
12594;BME280;6362;50.208;9.182;2023-01-31T06:25:19;100673.13;;;0.70;81.50
12594;BME280;6362;50.208;9.182;2023-01-31T06:27:44;100679.66;;;0.63;81.65
12594;BME280;6362;50.208;9.182;2023-01-31T06:30:10;100684.31;;;0.52;81.91
12594;BME280;6362;50.208;9.182;2023-01-31T06:32:36;100680.06;;;0.53;81.76
12594;BME280;6362;50.208;9.182;2023-01-31T06:35:03;100681.53;;;0.48;81.84
12594;BME280;6362;50.208;9.182;2023-01-31T06:37:28;100682.19;;;0.44;82.09
12594;BME280;6362;50.208;9.182;2023-01-31T06:39:54;100675.47;;;0.65;85.76
12594;BME280;6362;50.208;9.182;2023-01-31T06:42:19;100676.88;;;1.17;87.46
12594;BME280;6362;50.208;9.182;2023-01-31T06:44:45;100674.31;;;1.38;87.37
12594;BME280;6362;50.208;9.182;2023-01-31T06:47:10;100678.41;;;1.55;86.82
12594;BME280;6362;50.208;9.182;2023-01-31T06:49:37;100678.84;;;1.66;85.33
12594;BME280;6362;50.208;9.182;2023-01-31T06:52:02;100684.31;;;1.73;84.41
12594;BME280;6362;50.208;9.182;2023-01-31T06:54:28;100685.66;;;1.86;82.43
12594;BME280;6362;50.208;9.182;2023-01-31T06:56:53;100689.28;;;1.91;81.48
12594;BME280;6362;50.208;9.182;2023-01-31T06:59:19;100699.88;;;1.78;80.07
12594;BME280;6362;50.208;9.182;2023-01-31T07:01:44;100694.88;;;1.60;79.77
12594;BME280;6362;50.208;9.182;2023-01-31T07:04:10;100702.75;;;1.44;79.06
12594;BME280;6362;50.208;9.182;2023-01-31T07:06:35;100696.03;;;1.26;79.58
12594;BME280;6362;50.208;9.182;2023-01-31T07:09:00;100699.78;;;1.14;79.58
12594;BME280;6362;50.208;9.182;2023-01-31T07:11:26;100703.72;;;1.05;79.84
12594;BME280;6362;50.208;9.182;2023-01-31T07:13:51;100703.41;;;0.99;79.89
12594;BME280;6362;50.208;9.182;2023-01-31T07:16:17;100707.47;;;0.94;79.94
12594;BME280;6362;50.208;9.182;2023-01-31T07:18:43;100713.41;;;0.93;80.35
12594;BME280;6362;50.208;9.182;2023-01-31T07:21:09;100725.22;;;0.90;80.57
12594;BME280;6362;50.208;9.182;2023-01-31T07:23:35;100718.41;;;0.90;80.54
12594;BME280;6362;50.208;9.182;2023-01-31T07:26:04;100723.66;;;0.93;80.86
12594;BME280;6362;50.208;9.182;2023-01-31T07:28:30;100722.09;;;0.97;81.11
12594;BME280;6362;50.208;9.182;2023-01-31T07:31:02;100732.47;;;1.00;80.89
12594;BME280;6362;50.208;9.182;2023-01-31T07:33:28;100724.78;;;1.00;81.21
12594;BME280;6362;50.208;9.182;2023-01-31T07:35:54;100731.75;;;1.02;80.75
12594;BME280;6362;50.208;9.182;2023-01-31T07:38:19;100735.31;;;1.06;81.30
12594;BME280;6362;50.208;9.182;2023-01-31T07:40:45;100720.88;;;1.08;81.10
12594;BME280;6362;50.208;9.182;2023-01-31T07:43:10;100723.66;;;1.13;80.84
12594;BME280;6362;50.208;9.182;2023-01-31T07:45:37;100725.59;;;1.18;80.73
12594;BME280;6362;50.208;9.182;2023-01-31T07:48:03;100725.09;;;1.27;80.48
12594;BME280;6362;50.208;9.182;2023-01-31T07:50:30;100719.19;;;1.28;80.54
12594;BME280;6362;50.208;9.182;2023-01-31T07:52:57;100721.00;;;1.30;80.45
12594;BME280;6362;50.208;9.182;2023-01-31T07:55:23;100722.06;;;1.36;79.77
12594;BME280;6362;50.208;9.182;2023-01-31T07:57:49;100717.13;;;1.40;79.69
12594;BME280;6362;50.208;9.182;2023-01-31T08:00:14;100718.19;;;1.45;79.76
12594;BME280;6362;50.208;9.182;2023-01-31T08:02:59;100724.56;;;1.55;79.24
12594;BME280;6362;50.208;9.182;2023-01-31T08:05:46;100721.22;;;1.56;78.93
12594;BME280;6362;50.208;9.182;2023-01-31T08:08:12;100724.03;;;1.62;78.85
12594;BME280;6362;50.208;9.182;2023-01-31T08:10:38;100726.59;;;1.62;79.24
12594;BME280;6362;50.208;9.182;2023-01-31T08:13:04;100713.19;;;1.69;78.71
12594;BME280;6362;50.208;9.182;2023-01-31T08:15:31;100719.00;;;1.86;77.53
12594;BME280;6362;50.208;9.182;2023-01-31T08:17:56;100707.94;;;1.87;78.23
12594;BME280;6362;50.208;9.182;2023-01-31T08:20:21;100705.59;;;1.93;77.03
12594;BME280;6362;50.208;9.182;2023-01-31T08:22:47;100711.59;;;1.94;77.48
12594;BME280;6362;50.208;9.182;2023-01-31T08:25:12;100716.97;;;2.00;77.37
12594;BME280;6362;50.208;9.182;2023-01-31T08:27:38;100714.72;;;2.07;76.52
12594;BME280;6362;50.208;9.182;2023-01-31T08:30:03;100713.22;;;2.13;76.82
12594;BME280;6362;50.208;9.182;2023-01-31T08:32:29;100724.53;;;2.18;76.38
12594;BME280;6362;50.208;9.182;2023-01-31T08:34:54;100725.69;;;2.26;76.18
12594;BME280;6362;50.208;9.182;2023-01-31T08:37:20;100732.75;;;2.31;76.09
12594;BME280;6362;50.208;9.182;2023-01-31T08:39:45;100727.75;;;2.34;75.16
12594;BME280;6362;50.208;9.182;2023-01-31T08:42:12;100728.03;;;2.42;75.34
12594;BME280;6362;50.208;9.182;2023-01-31T08:44:38;100734.16;;;2.46;75.68
12594;BME280;6362;50.208;9.182;2023-01-31T08:47:03;100722.44;;;2.52;75.18
12594;BME280;6362;50.208;9.182;2023-01-31T08:49:29;100713.66;;;2.70;74.57
12594;BME280;6362;50.208;9.182;2023-01-31T08:51:55;100706.00;;;2.71;74.33
12594;BME280;6362;50.208;9.182;2023-01-31T08:54:21;100704.59;;;2.79;74.22
12594;BME280;6362;50.208;9.182;2023-01-31T08:56:46;100701.22;;;2.80;73.79
12594;BME280;6362;50.208;9.182;2023-01-31T08:59:11;100707.25;;;2.82;74.00
12594;BME280;6362;50.208;9.182;2023-01-31T09:01:37;100724.72;;;2.91;73.32
12594;BME280;6362;50.208;9.182;2023-01-31T09:04:03;100726.88;;;3.04;72.73
12594;BME280;6362;50.208;9.182;2023-01-31T09:06:28;100723.28;;;2.99;72.83
12594;BME280;6362;50.208;9.182;2023-01-31T09:08:55;100703.84;;;3.06;73.15
12594;BME280;6362;50.208;9.182;2023-01-31T09:11:21;100715.78;;;3.05;72.68
12594;BME280;6362;50.208;9.182;2023-01-31T09:13:48;100719.47;;;3.12;72.66
12594;BME280;6362;50.208;9.182;2023-01-31T09:16:16;100719.69;;;3.18;72.30
12594;BME280;6362;50.208;9.182;2023-01-31T09:18:43;100713.59;;;3.16;72.51
12594;BME280;6362;50.208;9.182;2023-01-31T09:21:11;100711.34;;;3.25;72.76
12594;BME280;6362;50.208;9.182;2023-01-31T09:23:36;100716.19;;;3.41;71.50
12594;BME280;6362;50.208;9.182;2023-01-31T09:26:03;100721.13;;;3.35;72.04
12594;BME280;6362;50.208;9.182;2023-01-31T09:28:28;100722.03;;;3.37;72.22
12594;BME280;6362;50.208;9.182;2023-01-31T09:30:54;100715.53;;;3.47;71.65
12594;BME280;6362;50.208;9.182;2023-01-31T09:33:21;100710.09;;;3.65;71.35
12594;BME280;6362;50.208;9.182;2023-01-31T09:35:57;100709.63;;;3.77;70.58
12594;BME280;6362;50.208;9.182;2023-01-31T09:38:24;100704.69;;;3.83;70.43
12594;BME280;6362;50.208;9.182;2023-01-31T09:40:49;100716.25;;;3.95;70.00
12594;BME280;6362;50.208;9.182;2023-01-31T09:43:16;100730.63;;;3.89;70.33
12594;BME280;6362;50.208;9.182;2023-01-31T09:45:45;100725.47;;;3.62;70.74
12594;BME280;6362;50.208;9.182;2023-01-31T09:48:20;100730.16;;;3.50;71.62
12594;BME280;6362;50.208;9.182;2023-01-31T09:50:51;100732.31;;;3.37;72.26
12594;BME280;6362;50.208;9.182;2023-01-31T09:53:22;100725.06;;;3.26;72.73
12594;BME280;6362;50.208;9.182;2023-01-31T09:56:08;100712.19;;;3.24;72.53
12594;BME280;6362;50.208;9.182;2023-01-31T10:03:58;100697.13;;;3.11;72.93
12594;BME280;6362;50.208;9.182;2023-01-31T10:06:45;100689.00;;;2.99;74.15
12594;BME280;6362;50.208;9.182;2023-01-31T10:09:27;100699.63;;;3.08;73.53
12594;BME280;6362;50.208;9.182;2023-01-31T10:14:52;100681.41;;;3.02;74.07
12594;BME280;6362;50.208;9.182;2023-01-31T10:17:54;100697.00;;;3.06;74.21
12594;BME280;6362;50.208;9.182;2023-01-31T10:20:43;100699.81;;;3.14;73.51
12594;BME280;6362;50.208;9.182;2023-01-31T10:23:27;100704.22;;;3.16;73.53
12594;BME280;6362;50.208;9.182;2023-01-31T10:26:09;100699.28;;;3.23;72.59
12594;BME280;6362;50.208;9.182;2023-01-31T10:31:12;100705.34;;;3.25;73.30
12594;BME280;6362;50.208;9.182;2023-01-31T10:33:53;100695.97;;;3.01;73.43
12594;BME280;6362;50.208;9.182;2023-01-31T10:36:43;100691.94;;;2.84;74.64
12594;BME280;6362;50.208;9.182;2023-01-31T10:39:21;100677.75;;;2.95;74.24
12594;BME280;6362;50.208;9.182;2023-01-31T10:42:08;100668.94;;;2.88;75.07
12594;BME280;6362;50.208;9.182;2023-01-31T10:45:40;100657.91;;;2.91;75.05
12594;BME280;6362;50.208;9.182;2023-01-31T10:50:51;100664.91;;;2.71;75.61
12594;BME280;6362;50.208;9.182;2023-01-31T10:55:54;100674.00;;;2.85;75.36
12594;BME280;6362;50.208;9.182;2023-01-31T10:58:23;100665.28;;;2.82;75.18
12594;BME280;6362;50.208;9.182;2023-01-31T11:00:49;100653.84;;;2.72;75.62
12594;BME280;6362;50.208;9.182;2023-01-31T11:03:15;100646.19;;;2.74;75.79
12594;BME280;6362;50.208;9.182;2023-01-31T11:05:49;100628.47;;;2.81;76.36
12594;BME280;6362;50.208;9.182;2023-01-31T11:10:55;100644.69;;;2.80;76.08
12594;BME280;6362;50.208;9.182;2023-01-31T11:13:21;100635.34;;;2.82;75.71
12594;BME280;6362;50.208;9.182;2023-01-31T11:15:47;100627.50;;;2.78;75.62
12594;BME280;6362;50.208;9.182;2023-01-31T11:18:30;100616.50;;;2.58;76.62
12594;BME280;6362;50.208;9.182;2023-01-31T11:20:58;100619.91;;;2.57;76.81
12594;BME280;6362;50.208;9.182;2023-01-31T11:23:28;100618.47;;;2.65;77.01
12594;BME280;6362;50.208;9.182;2023-01-31T11:25:54;100611.59;;;2.64;77.10
12594;BME280;6362;50.208;9.182;2023-01-31T11:28:32;100607.25;;;2.61;76.76
12594;BME280;6362;50.208;9.182;2023-01-31T11:30:59;100604.88;;;2.68;77.11
12594;BME280;6362;50.208;9.182;2023-01-31T11:33:54;100596.44;;;2.72;77.02
12594;BME280;6362;50.208;9.182;2023-01-31T11:36:21;100598.31;;;2.76;76.95
12594;BME280;6362;50.208;9.182;2023-01-31T11:38:49;100596.41;;;2.70;77.08
12594;BME280;6362;50.208;9.182;2023-01-31T11:47:01;100571.31;;;2.88;76.69
12594;BME280;6362;50.208;9.182;2023-01-31T11:49:35;100568.44;;;2.78;77.28
12594;BME280;6362;50.208;9.182;2023-01-31T11:52:13;100549.53;;;2.77;77.32
12594;BME280;6362;50.208;9.182;2023-01-31T11:54:43;100539.38;;;2.80;76.76
12594;BME280;6362;50.208;9.182;2023-01-31T11:57:15;100539.59;;;2.86;76.88
12594;BME280;6362;50.208;9.182;2023-01-31T11:59:41;100534.44;;;2.86;77.22
12594;BME280;6362;50.208;9.182;2023-01-31T12:02:22;100525.44;;;2.99;76.96
12594;BME280;6362;50.208;9.182;2023-01-31T12:04:50;100520.66;;;3.10;77.83
12594;BME280;6362;50.208;9.182;2023-01-31T12:07:22;100525.19;;;3.17;77.53
12594;BME280;6362;50.208;9.182;2023-01-31T12:09:48;100520.94;;;3.19;76.23
12594;BME280;6362;50.208;9.182;2023-01-31T12:14:49;100525.25;;;3.20;76.39
12594;BME280;6362;50.208;9.182;2023-01-31T12:17:16;100511.38;;;3.15;76.25
12594;BME280;6362;50.208;9.182;2023-01-31T12:22:35;100499.53;;;3.18;76.03
12594;BME280;6362;50.208;9.182;2023-01-31T12:27:58;100470.53;;;3.23;76.14
12594;BME280;6362;50.208;9.182;2023-01-31T12:36:21;100473.91;;;3.22;75.35
12594;BME280;6362;50.208;9.182;2023-01-31T12:41:31;100482.78;;;3.31;75.60
12594;BME280;6362;50.208;9.182;2023-01-31T12:55:28;100451.13;;;3.62;73.58
12594;BME280;6362;50.208;9.182;2023-01-31T13:00:52;100434.72;;;3.59;73.93
12594;BME280;6362;50.208;9.182;2023-01-31T13:08:34;100431.59;;;3.69;74.24
12594;BME280;6362;50.208;9.182;2023-01-31T13:11:09;100436.22;;;3.81;73.43
12594;BME280;6362;50.208;9.182;2023-01-31T13:13:46;100446.47;;;3.79;73.44
12594;BME280;6362;50.208;9.182;2023-01-31T13:16:23;100433.28;;;3.67;74.28
12594;BME280;6362;50.208;9.182;2023-01-31T13:18:51;100429.94;;;3.71;74.41
12594;BME280;6362;50.208;9.182;2023-01-31T13:21:23;100410.19;;;3.70;73.88
12594;BME280;6362;50.208;9.182;2023-01-31T13:23:56;100397.25;;;3.67;73.95
12594;BME280;6362;50.208;9.182;2023-01-31T13:26:30;100385.44;;;3.74;73.80
12594;BME280;6362;50.208;9.182;2023-01-31T13:29:09;100392.50;;;3.82;73.53
12594;BME280;6362;50.208;9.182;2023-01-31T13:31:43;100398.44;;;3.78;73.24
12594;BME280;6362;50.208;9.182;2023-01-31T13:37:12;100396.25;;;3.93;73.97
12594;BME280;6362;50.208;9.182;2023-01-31T13:39:41;100389.31;;;3.91;73.81
12594;BME280;6362;50.208;9.182;2023-01-31T13:42:15;100390.19;;;3.91;74.19
12594;BME280;6362;50.208;9.182;2023-01-31T13:44:41;100400.19;;;3.81;73.92
12594;BME280;6362;50.208;9.182;2023-01-31T13:47:26;100399.50;;;3.86;74.11
12594;BME280;6362;50.208;9.182;2023-01-31T13:49:54;100409.72;;;3.83;75.17
12594;BME280;6362;50.208;9.182;2023-01-31T13:52:34;100406.25;;;3.83;75.51
12594;BME280;6362;50.208;9.182;2023-01-31T13:55:04;100394.44;;;3.89;75.21
12594;BME280;6362;50.208;9.182;2023-01-31T13:57:40;100399.66;;;3.92;75.67
12594;BME280;6362;50.208;9.182;2023-01-31T14:00:35;100390.91;;;3.86;76.43
12594;BME280;6362;50.208;9.182;2023-01-31T14:03:13;100397.31;;;3.70;76.98
12594;BME280;6362;50.208;9.182;2023-01-31T14:10:53;100396.84;;;3.83;76.95
12594;BME280;6362;50.208;9.182;2023-01-31T14:16:00;100370.59;;;3.65;77.76
12594;BME280;6362;50.208;9.182;2023-01-31T14:18:37;100367.09;;;3.61;77.88
12594;BME280;6362;50.208;9.182;2023-01-31T14:23:57;100374.34;;;3.76;77.79
12594;BME280;6362;50.208;9.182;2023-01-31T14:31:41;100371.59;;;3.70;77.99
12594;BME280;6362;50.208;9.182;2023-01-31T14:34:16;100379.47;;;3.76;78.05
12594;BME280;6362;50.208;9.182;2023-01-31T14:39:39;100380.28;;;3.74;78.24
12594;BME280;6362;50.208;9.182;2023-01-31T14:58:24;100407.25;;;3.56;81.40
12594;BME280;6362;50.208;9.182;2023-01-31T15:01:03;100408.13;;;3.57;81.83
12594;BME280;6362;50.208;9.182;2023-01-31T15:03:33;100396.03;;;3.54;82.34
12594;BME280;6362;50.208;9.182;2023-01-31T15:06:10;100392.72;;;3.58;82.79
12594;BME280;6362;50.208;9.182;2023-01-31T15:08:47;100377.41;;;3.63;82.87
12594;BME280;6362;50.208;9.182;2023-01-31T15:18:48;100384.97;;;3.57;83.10
12594;BME280;6362;50.208;9.182;2023-01-31T15:21:20;100388.19;;;3.50;83.52
12594;BME280;6362;50.208;9.182;2023-01-31T15:23:47;100375.25;;;3.47;83.84
12594;BME280;6362;50.208;9.182;2023-01-31T15:26:15;100378.78;;;3.50;84.15
12594;BME280;6362;50.208;9.182;2023-01-31T15:28:43;100381.59;;;3.59;84.18
12594;BME280;6362;50.208;9.182;2023-01-31T15:31:22;100385.97;;;3.62;84.24
12594;BME280;6362;50.208;9.182;2023-01-31T15:33:52;100382.44;;;3.58;84.16
12594;BME280;6362;50.208;9.182;2023-01-31T15:36:19;100380.81;;;3.62;83.84
12594;BME280;6362;50.208;9.182;2023-01-31T15:38:59;100385.84;;;3.57;84.31
12594;BME280;6362;50.208;9.182;2023-01-31T15:41:37;100383.22;;;3.56;84.03